Tiempo atmosférico en la estación meteorológica de Segorbe, Castelló/Castellón (460 m.)



Fecha
DESCASC
Temp. máxima en grados centígrados (hora)
DESCASC
Temp. mínima en grados centígrados (hora)
DESCASC
Temp. media en grados centígrados
DESCASC
Racha de viento máxima en m/sg (hora)
DESCASC
Velocidad máxima media en intervalos de 10 minutos(hora)
DESCASC
Precipitaciones diarias en mm
DESCASC
Precipitaciones de 00:00 a 06:00 en mm
DESCASC
Precipitaciones de 06:00 a 12:00 en mm
DESCASC
Precipitaciones de 12:00 a 18:00 en mm
DESCASC
Precipitaciones de 18:00 a 24:00 en mm
DESCASC
31-05-2020 25.6 (12:50) 10.3 (04:40) 18 7.78 (15:10) 3.89 (14:50) -- -- -- -- --
30-05-2020 27.1 (13:40) 10.4 (06:00) 18.8 8.61 (16:00) 4.17 (14:40) -- -- -- -- --
29-05-2020 29.9 (14:50) 8.8 (05:10) 19.3 8.61 (16:10) 4.72 (15:50) -- -- -- -- --
28-05-2020 24.5 (17:10) 10.7 (00:00) 17.6 6.67 (16:30) 3.33 (16:20) -- -- -- -- --
27-05-2020 25.8 (14:20) 11.9 (00:00) 18.8 8.61 (17:00) 4.17 (16:40) -- -- -- -- --
26-05-2020 24.8 (16:10) 13.1 (00:00) 18.9 7.5 (17:10) 3.06 (23:30) -- -- -- -- --
25-05-2020 23.7 (13:40) 11.6 (00:00) 17.7 5.56 (13:30) 2.78 (06:50) -- -- -- -- --
24-05-2020 23.3 (13:00) 13.6 (00:00) 18.4 6.67 (15:20) 3.33 (14:50) -- -- -- -- --
23-05-2020 27.6 (13:40) 12.8 (00:00) 20.2 7.5 (17:00) 3.61 (17:40) -- -- -- -- --
22-05-2020 29.8 (14:00) 14.1 (00:00) 21.9 7.22 (15:10) 3.61 (17:00) -- -- -- -- --
21-05-2020 30.3 (14:10) 12.3 (00:00) 21.3 7.78 (15:10) 3.89 (15:40) -- -- -- -- --
20-05-2020 28.8 (13:00) 12.6 (00:00) 20.7 7.78 (13:20) 3.61 (14:10) -- -- -- -- --
19-05-2020 27.3 (12:40) 9.8 (00:00) 18.5 6.39 (15:10) 3.89 (16:00) -- -- -- -- --
18-05-2020 23.9 (14:30) 9.5 (00:00) 16.7 7.22 (16:30) 3.89 (15:30) -- -- -- -- --
17-05-2020 22.2 (13:20) 9.2 (00:00) 15.7 6.11 (14:10) 2.78 (14:30) -- -- -- -- --
16-05-2020 20.3 (14:10) 11.5 (00:00) 15.9 5.83 (13:40) 2.5 (13:50) -- -- -- -- --
15-05-2020 19 (11:00) 7.6 (00:00) 13.3 5.83 (12:00) 2.78 (04:10) -- -- -- -- --
14-05-2020 16.7 (15:20) 10.4 (00:00) 13.6 6.67 (15:30) 3.06 (15:20) -- -- -- -- --
13-05-2020 23.9 (16:00) 9.1 (00:00) 16.5 9.17 (11:10) 3.89 (10:40) -- -- -- -- --
12-05-2020 21 (15:10) 12.3 (00:00) 16.7 7.5 (15:20) 3.33 (15:30) -- -- -- -- --
11-05-2020 24.6 (15:10) 13.4 (00:00) 19 12.78 (10:50) 5.28 (15:00) -- -- -- -- --
10-05-2020 23.5 (16:50) 12.5 (00:00) 18 14.17 (14:50) 7.22 (14:50) -- -- -- -- --
09-05-2020 21.4 (16:20) 11.6 (00:00) 16.5 5.56 (11:30) 2.78 (16:50) -- -- -- -- --
08-05-2020 22.5 (13:20) 10.9 (00:00) 16.7 7.5 (15:30) 3.33 (15:30) -- 0 0 -- --
07-05-2020 24 (14:10) 11.8 (00:00) 17.9 6.11 (14:00) 3.06 (06:50) 0 0 0 0 0
06-05-2020 26.6 (12:40) 12.1 (00:00) 19.4 7.78 (15:20) 3.89 (14:10) 0 0 0 0 0
05-05-2020 26.5 (13:40) 12.6 (00:00) 19.6 6.39 (14:00) 3.33 (14:20) 0 0 0 0 0
04-05-2020 26.3 (15:20) 10.5 (00:00) 18.4 7.22 (16:20) 3.33 (16:20) 0 0 0 0 0
03-05-2020 26 (12:50) 11.9 (00:00) 18.9 7.22 (15:10) 3.61 (14:30) 0 0 0 0 0

Gráficas

Temp. máximas Temp. mínimas Temp. medias Precipitaciones Rachas de viento máximas Velocidades máximas media en intervalos de 10 minutos

Datos horarios

Fecha y hora oficial Temperatura (ºC) Velocidad del viento (km/h) Dirección del viento Racha (km/h) Dirección de racha Precipitación (mm) Presión (hPa) Tendencia (hPa) Humedad (%)
2020-06-01 23:00:00 16.1 8 Sudoeste 13 Sudoeste 0 -- -- 66
2020-06-01 22:00:00 17.3 9 Sudoeste 12 Sudoeste 0 -- -- 66
2020-06-01 21:00:00 19.9 2 Sur 12 Sudeste 0 -- -- 60
2020-06-01 20:00:00 20.9 8 Sudeste 16 Sudeste 0 -- -- 53
2020-06-01 19:00:00 22.1 10 Sudeste 21 Sudeste 0 -- -- 58
2020-06-01 18:00:00 23.1 10 Sudeste 27 Sudeste 0 -- -- 58
2020-06-01 17:00:00 23.7 12 Sudeste 27 Este 0 -- -- 58
2020-06-01 16:00:00 24 12 Este 32 Este 0 -- -- 63
2020-06-01 15:00:00 25.2 15 Sudeste 31 Sudeste 0 -- -- 55
2020-06-01 14:00:00 26.5 10 Sudeste 22 Este 0 -- -- 48
2020-06-01 13:00:00 -- 12 Nordeste 14 Norte -- -- -- --
2020-06-01 12:00:00 24.4 4 Este -- -- -- -- -- 40
2020-06-01 11:00:00 -- -- -- -- -- -- -- -- --
2020-06-01 10:00:00 18.7 0 Calma 8 Sudoeste -- -- -- 58
2020-06-01 09:00:00 15.5 3 Sudoeste 8 Sudoeste -- -- -- 82
2020-06-01 08:00:00 14.3 4 Sudoeste 9 Sudoeste -- -- -- 85
2020-06-01 07:00:00 13.3 0 Calma 5 Oeste -- -- -- 88
2020-06-01 06:00:00 12.4 2 Sudoeste 6 Sudoeste -- -- -- 89
2020-06-01 05:00:00 12.6 3 Sudoeste 8 Sudoeste -- -- -- 85
2020-06-01 04:00:00 13.3 5 Sudoeste 12 Sudoeste -- -- -- 80
2020-06-01 03:00:00 14.3 6 Sudoeste 16 Oeste -- -- -- 81
2020-06-01 02:00:00 13.8 3 Sudoeste 12 Sudoeste -- -- -- 82
2020-06-01 01:00:00 14.7 8 Sudoeste 13 Sudoeste -- -- -- 79
2020-06-01 00:00:00 15.2 7 Sudoeste 13 Sudoeste -- -- -- 78
2020-05-31 23:00:00 15.4 5 Sudoeste 12 Sudoeste -- -- -- 78
2020-05-31 22:00:00 16.3 9 Sudoeste 11 Sudoeste -- -- -- 74
2020-05-31 21:00:00 19.2 2 Sur 14 Este -- -- -- 64
2020-05-31 20:00:00 20.6 9 Sudeste 22 Sudeste -- -- -- 59
2020-05-31 19:00:00 22.4 6 Sudeste 26 Sudeste -- -- -- 54
2020-05-31 18:00:00 23.1 10 Sudeste 26 Este -- -- -- 52
2020-05-31 17:00:00 24.3 10 Sudeste 26 Este -- -- -- 40
2020-05-31 16:00:00 24.7 12 Este 28 Este -- -- -- 42
2020-05-31 15:00:00 24.8 12 Sudeste 27 Sudeste -- -- -- 50
2020-05-31 14:00:00 25.5 10 Sudeste 27 Sudeste -- -- -- 50
2020-05-31 13:00:00 25.6 12 Sudeste 21 Sudeste -- -- -- 43
2020-05-31 12:00:00 24.6 7 Sudeste 18 Este -- -- -- 49
2020-05-31 11:00:00 22.5 8 Nordeste 14 Nordeste -- -- -- 54
2020-05-31 10:00:00 20.6 3 Este 9 Norte -- -- -- 55
2020-05-31 09:00:00 18.3 3 Nordeste 6 Norte -- -- -- 61
2020-05-31 08:00:00 14.1 3 Norte 12 Sudoeste -- -- -- 80
2020-05-31 07:00:00 10.5 4 Sudoeste 10 Sudoeste -- -- -- 91
2020-05-31 06:00:00 10.5 3 Sudoeste 11 Sudoeste -- -- -- 89
2020-05-31 05:00:00 10.4 5 Sudoeste 13 Sudoeste -- -- -- 81
2020-05-31 04:00:00 10.5 8 Sudoeste 14 Sudoeste -- -- -- 77
2020-05-31 03:00:00 10.7 7 Sudoeste 12 Sudoeste -- -- -- 75
2020-05-31 02:00:00 11.7 6 Sudoeste 13 Sudoeste -- -- -- 72
2020-05-31 01:00:00 12.5 10 Sudoeste 14 Sudoeste -- -- -- 78
2020-05-31 00:00:00 13.3 8 Sudoeste 12 Sudoeste -- -- -- 78
2020-05-30 23:00:00 14.3 8 Sudoeste 13 Sudoeste -- -- -- 75
2020-05-30 22:00:00 15.7 3 Sudoeste 8 Sudoeste -- -- -- 68
2020-05-30 21:00:00 19.2 4 Sudeste 17 Sudeste -- -- -- 53
2020-05-30 20:00:00 20.6 6 Sudeste 22 Sudeste -- -- -- 45
2020-05-30 19:00:00 22.1 9 Sudeste 24 Sudeste -- -- -- 40
2020-05-30 18:00:00 23 12 Este 26 Este -- -- -- 44
2020-05-30 17:00:00 23.9 13 Sudeste 28 Este -- -- -- 45
2020-05-30 16:00:00 24.4 13 Sudeste 31 Sudeste -- -- -- 44
2020-05-30 15:00:00 24.6 14 Este 30 Nordeste -- -- -- 45
2020-05-30 14:00:00 27 6 Sudoeste 21 Este -- -- -- 41
2020-05-30 13:00:00 26.2 6 Sur 17 Sudeste -- -- -- 36
2020-05-30 12:00:00 24.7 7 Sudeste 19 Este -- -- -- 44
2020-05-30 11:00:00 23.5 7 Nordeste 14 Este -- -- -- 45
2020-05-30 10:00:00 21.9 3 Este 6 Sudeste -- -- -- 46
2020-05-30 09:00:00 18.8 0 Calma 6 Este -- -- -- 59
2020-05-30 08:00:00 14.2 0 Calma 6 Sudoeste -- -- -- 80
2020-05-30 07:00:00 10.4 2 Sudoeste 11 Sudoeste -- -- -- 87
2020-05-30 06:00:00 10.4 5 Sudoeste 10 Sudoeste -- -- -- 86
2020-05-30 05:00:00 11.2 3 Oeste 11 Sudoeste -- -- -- 82
2020-05-30 04:00:00 11.7 5 Sudoeste 12 Sudoeste -- -- -- 83
2020-05-30 03:00:00 12.1 9 Sudoeste 13 Sudoeste -- -- -- 80
2020-05-30 02:00:00 12.8 5 Sudoeste 13 Sudoeste -- -- -- 76
2020-05-30 01:00:00 14 6 Sudoeste 13 Sudoeste -- -- -- 77
2020-05-30 00:00:00 14.5 9 Sudoeste 13 Sudoeste -- -- -- 72
2020-05-29 23:00:00 15.6 8 Sudoeste 12 Sudoeste -- -- -- 70
2020-05-29 22:00:00 16.6 6 Sudoeste 9 Sudoeste -- -- -- 71
2020-05-29 21:00:00 20.1 5 Sudeste 13 Sudeste -- -- -- 57
2020-05-29 20:00:00 21.7 6 Sudeste 19 Sudeste -- -- -- 49
2020-05-29 19:00:00 23 10 Sudeste 22 Sudeste -- -- -- 48
2020-05-29 18:00:00 24.4 13 Sudeste 27 Este -- -- -- 43
2020-05-29 17:00:00 26.3 11 Este 31 Sudeste -- -- -- 37
2020-05-29 16:00:00 27.6 14 Sudeste 31 Sudeste -- -- -- 29
2020-05-29 15:00:00 29.7 6 Sudoeste 18 Sur -- -- -- 27
2020-05-29 14:00:00 29.5 6 Sudoeste 15 Oeste -- -- -- 25
2020-05-29 13:00:00 28.5 3 Sudeste 21 Nordeste -- -- -- 26
2020-05-29 12:00:00 26.8 8 Este 16 Este -- -- -- 33
2020-05-29 11:00:00 25.7 5 Nordeste 8 Nordeste -- -- -- 35
2020-05-29 10:00:00 22.4 2 Nordeste 6 Norte -- -- -- 42
2020-05-29 09:00:00 18.8 0 Calma 5 Sur -- -- -- 56
2020-05-29 08:00:00 13.1 3 Sudoeste 12 Sudoeste -- -- -- 75
2020-05-29 07:00:00 9 7 Sudoeste 12 Sudoeste -- -- -- 87
2020-05-29 06:00:00 8.8 4 Oeste 10 Sudoeste -- -- -- 88
2020-05-29 05:00:00 8.9 0 Calma 10 Sudoeste -- -- -- 88
2020-05-29 04:00:00 9.2 2 Oeste 9 Sudoeste -- -- -- 86
2020-05-29 03:00:00 10 7 Sudoeste 13 Sudoeste -- -- -- 84
2020-05-29 02:00:00 10.8 7 Sudoeste 14 Sudoeste -- -- -- 82
2020-05-29 01:00:00 11.5 6 Sudoeste 13 Sudoeste -- -- -- 78
2020-05-29 00:00:00 12.6 10 Sudoeste 16 Sudoeste -- -- -- 74
2020-05-28 23:00:00 13.5 10 Sudoeste 15 Sudoeste -- -- -- 71
2020-05-28 22:00:00 15 10 Sudoeste 13 Sudoeste -- -- -- 66
2020-05-28 21:00:00 18.8 4 Sudoeste 19 Este -- -- -- 57
2020-05-28 20:00:00 21.5 9 Sudeste 21 Sudeste -- -- -- 44
2020-05-28 19:00:00 23.2 10 Sudeste 21 Este -- -- -- 39
2020-05-28 18:00:00 23.8 9 Sudeste 24 Sudeste -- -- -- 40
2020-05-28 17:00:00 24.4 8 Sudeste 24 Sudeste -- -- -- 46
2020-05-28 16:00:00 23.9 12 Sudeste 23 Este -- -- -- 49
2020-05-28 15:00:00 23.6 9 Sudeste 24 Sudeste -- -- -- 50
2020-05-28 14:00:00 23.7 8 Sudeste 21 Este -- -- -- 54
2020-05-28 13:00:00 23.6 7 Este 20 Sudeste -- -- -- 52
2020-05-28 12:00:00 23.3 6 Sudeste 19 Este -- -- -- 53
2020-05-28 11:00:00 22.3 5 Este 13 Nordeste -- -- -- 51
2020-05-28 10:00:00 21 4 Nordeste 9 Nordeste -- -- -- 55
2020-05-28 09:00:00 18.8 3 Nordeste 5 Nordeste -- -- -- 67
2020-05-28 08:00:00 14 3 Sudoeste 9 Sudoeste -- -- -- 88
2020-05-28 07:00:00 10.7 5 Sudoeste 12 Sudoeste -- -- -- 94
2020-05-28 06:00:00 11 6 Sudoeste 12 Sudoeste -- -- -- 93
2020-05-28 05:00:00 11.4 11 Sudoeste 14 Sudoeste -- -- -- 93
2020-05-28 04:00:00 11.9 10 Sudoeste 13 Sudoeste -- -- -- 93
2020-05-28 03:00:00 12.4 8 Sudoeste 14 Sudoeste -- -- -- 93
2020-05-28 02:00:00 12.8 6 Sudoeste 12 Sudoeste -- -- -- 92
2020-05-28 01:00:00 13.4 9 Sudoeste 11 Sudoeste -- -- -- 89
2020-05-28 00:00:00 15.3 3 Sudoeste 13 Sudoeste -- -- -- 86
2020-05-27 23:00:00 16 3 Sudoeste 14 Sudoeste -- -- -- 86
2020-05-27 22:00:00 17.2 5 Sudoeste 13 Sudoeste -- -- -- 83
2020-05-27 21:00:00 18.9 4 Sur 19 Este -- -- -- 72
2020-05-27 20:00:00 20.7 9 Sudeste 21 Este -- -- -- 53
2020-05-27 19:00:00 21.7 9 Sudeste 25 Sudeste -- -- -- 67
2020-05-27 18:00:00 23.2 13 Sudeste 28 Este -- -- -- 51
2020-05-27 17:00:00 25 13 Este 31 Sudeste -- -- -- 39
2020-05-27 16:00:00 25.2 13 Este 28 Este -- -- -- 40
2020-05-27 15:00:00 25.5 10 Este 30 Este -- -- -- 40
2020-05-27 14:00:00 25.5 13 Sudeste 30 Sudeste -- -- -- 37
2020-05-27 13:00:00 25.6 13 Sudeste 29 Sudeste -- -- -- 35
2020-05-27 12:00:00 25.4 11 Sudeste 23 Este -- -- -- 35
2020-05-27 11:00:00 25 7 Este 17 Este -- -- -- 37
2020-05-27 10:00:00 24.1 3 Este 6 Nordeste -- -- -- 40
2020-05-27 09:00:00 20.5 0 Calma 7 Sudoeste -- -- -- 59
2020-05-27 08:00:00 16.3 6 Sudoeste 14 Sudoeste -- -- -- 72
2020-05-27 07:00:00 12.4 7 Sudoeste 13 Sudoeste -- -- -- 81
2020-05-27 06:00:00 11.9 8 Sudoeste 13 Sudoeste -- -- -- 86
2020-05-27 05:00:00 12.2 2 Sudoeste 12 Sudoeste -- -- -- 86
2020-05-27 04:00:00 12.1 4 Sudoeste 12 Sudoeste -- -- -- 87
2020-05-27 03:00:00 12.2 9 Sudoeste 13 Sudoeste -- -- -- 87
2020-05-27 02:00:00 12.6 9 Sudoeste 13 Sudoeste -- -- -- 87
2020-05-27 01:00:00 13.1 8 Sudoeste 13 Sudoeste -- -- -- 84
2020-05-27 00:00:00 13.8 8 Sudoeste 14 Sudoeste -- -- -- 81
2020-05-26 23:00:00 15.1 9 Sudoeste 12 Sudoeste -- -- -- 76
2020-05-26 22:00:00 17.1 2 Oeste 7 Oeste -- -- -- 72
2020-05-26 21:00:00 19.8 0 Calma 11 Este -- -- -- 63
2020-05-26 20:00:00 21.6 6 Sudeste 19 Sudeste -- -- -- 55
2020-05-26 19:00:00 23.1 9 Sudeste 21 Sudeste -- -- -- 50
2020-05-26 18:00:00 23.8 10 Sudeste 27 Este -- -- -- 50
2020-05-26 17:00:00 24.7 8 Sudeste 19 Sudeste -- -- -- 48
2020-05-26 16:00:00 24.7 6 Sur 20 Nordeste -- -- -- 44
2020-05-26 15:00:00 23.4 6 Este 16 Sudeste -- -- -- 46
2020-05-26 14:00:00 21.8 6 Sudeste 13 Sudeste -- -- -- 62
2020-05-26 13:00:00 21.5 3 Sur 12 Sudeste -- -- -- 61
2020-05-26 12:00:00 21.3 5 Este 11 Sudeste -- -- -- 59
2020-05-26 11:00:00 20.8 4 Este 8 Sudeste -- -- -- 60
2020-05-26 10:00:00 19.2 3 Norte 5 Oeste -- -- -- 75
2020-05-26 09:00:00 17.2 0 Calma 6 Oeste -- -- -- 88
2020-05-26 08:00:00 15.9 4 Sudoeste 10 Sudoeste -- -- -- 92
2020-05-26 07:00:00 14.6 6 Sudoeste 12 Sudoeste -- -- -- 94
2020-05-26 06:00:00 13.7 5 Sudoeste 12 Sudoeste -- -- -- 94
2020-05-26 05:00:00 13.2 4 Sudoeste 13 Sudoeste -- -- -- 94
2020-05-26 04:00:00 13.1 2 Oeste 10 Sudoeste -- -- -- 92
2020-05-26 03:00:00 13.4 5 Sudoeste 10 Sudoeste -- -- -- 93
2020-05-26 02:00:00 13.6 4 Oeste 9 Sudoeste -- -- -- 92
2020-05-26 01:00:00 13.4 2 Oeste 10 Sudoeste -- -- -- 92
2020-05-26 00:00:00 14 2 Oeste 9 Sudoeste -- -- -- 90
2020-05-25 23:00:00 14.9 3 Sudoeste 5 Sudoeste -- -- -- 89
2020-05-25 22:00:00 15.9 0 Calma 10 Sudoeste -- -- -- 84
2020-05-25 21:00:00 17.3 4 Sudeste 14 Sudeste -- -- -- 81
2020-05-25 20:00:00 18.7 7 Sudeste 19 Este -- -- -- 78
2020-05-25 19:00:00 19.6 9 Sudeste 18 Sudeste -- -- -- 73
2020-05-25 18:00:00 21.9 3 Oeste 10 Oeste -- -- -- 61
2020-05-25 17:00:00 21.6 3 Oeste 9 Sur -- -- -- 68
2020-05-25 16:00:00 23.1 3 Norte 12 Sudeste -- -- -- 52
2020-05-25 15:00:00 21.9 4 Sudeste 8 Sudeste -- -- -- 58
2020-05-25 14:00:00 23.1 6 Sudeste 20 Este -- -- -- 53
2020-05-25 13:00:00 21.9 6 Este 18 Sudeste -- -- -- 56
2020-05-25 12:00:00 21.1 8 Este 17 Este -- -- -- 61
2020-05-25 11:00:00 20 4 Sur 9 Sur -- -- -- 65
2020-05-25 10:00:00 17.6 0 Calma 5 Nordeste -- -- -- 77
2020-05-25 09:00:00 17.5 2 Nordeste 3 Nordeste -- -- -- 77
2020-05-25 08:00:00 14.7 0 Calma 11 Sudoeste -- -- -- 90
2020-05-25 07:00:00 11.6 9 Sudoeste 12 Sudoeste -- -- -- 95
2020-05-25 06:00:00 11.9 9 Sudoeste 11 Sudoeste -- -- -- 94
2020-05-25 05:00:00 12.5 2 Oeste 11 Sudoeste -- -- -- 94
2020-05-25 04:00:00 12.9 3 Sudoeste 10 Sudoeste -- -- -- 93
2020-05-25 03:00:00 13.3 8 Sudoeste 10 Sudoeste -- -- -- 92
2020-05-25 02:00:00 13.7 8 Sudoeste 10 Sudoeste -- -- -- 92
2020-05-25 01:00:00 13.9 7 Sudoeste 10 Sudoeste -- -- -- 91
2020-05-25 00:00:00 14.5 7 Sudoeste 10 Sudoeste -- -- -- 88
2020-05-24 23:00:00 15.8 3 Oeste 5 Sudoeste -- -- -- 84
2020-05-24 22:00:00 17.3 4 Sudeste 9 Sudeste -- -- -- 80
2020-05-24 21:00:00 17.7 4 Sudeste 14 Sur -- -- -- 78
2020-05-24 20:00:00 18.8 8 Sudeste 17 Este -- -- -- 74
2020-05-24 19:00:00 19.9 7 Sudeste 18 Sudeste -- -- -- 71
2020-05-24 18:00:00 21.6 9 Sudeste 19 Sudeste -- -- -- 65
2020-05-24 17:00:00 21.5 10 Sudeste 23 Sudeste -- -- -- 67
2020-05-24 16:00:00 21.5 10 Sudeste 24 Este -- -- -- 69
2020-05-24 15:00:00 22.3 11 Sudeste 24 Sudeste -- -- -- 66
2020-05-24 14:00:00 22.7 11 Sudeste 24 Este -- -- -- 63
2020-05-24 13:00:00 23.3 9 Sudeste 20 Sudeste -- -- -- 61
2020-05-24 12:00:00 22.2 7 Sudeste 17 Sudeste -- -- -- 62
2020-05-24 11:00:00 21.9 7 Sudeste 16 Nordeste -- -- -- 61
2020-05-24 10:00:00 20.9 5 Nordeste 8 Este -- -- -- 64
2020-05-24 09:00:00 18.9 5 Sudeste 8 Este -- -- -- 75
2020-05-24 08:00:00 16.9 0 Calma 4 Sudoeste -- -- -- 86
2020-05-24 07:00:00 14.3 4 Sudoeste 13 Sudoeste -- -- -- 93
2020-05-24 06:00:00 13.6 10 Sudoeste 13 Sudoeste -- -- -- 92
2020-05-24 05:00:00 14.1 5 Sudoeste 11 Sudoeste -- -- -- 91
2020-05-24 04:00:00 15.2 3 Sudoeste 7 Sudoeste -- -- -- 86
2020-05-24 03:00:00 17.1 5 Sur 10 Sudoeste -- -- -- 83
2020-05-24 02:00:00 16.2 5 Sur 12 Sudoeste -- -- -- 81
2020-05-24 01:00:00 14.7 12 Sudoeste 14 Sudoeste -- -- -- 71
2020-05-24 00:00:00 15.1 8 Sudoeste 14 Sudoeste -- -- -- 68
2020-05-23 23:00:00 16.1 6 Sudoeste 14 Sudoeste -- -- -- 66
2020-05-23 22:00:00 17.7 10 Sudoeste 13 Sudoeste -- -- -- 65
2020-05-23 21:00:00 21.4 4 Sudoeste 11 Este -- -- -- 59
2020-05-23 20:00:00 23.1 9 Sudeste 15 Sudeste -- -- -- 48
2020-05-23 19:00:00 24.5 7 Sudeste 20 Este -- -- -- 46
2020-05-23 18:00:00 26.1 11 Sudeste 22 Sudeste -- -- -- 43
2020-05-23 17:00:00 27.2 12 Sudeste 27 Este -- -- -- 42
2020-05-23 16:00:00 27.5 10 Sudeste 21 Sudeste -- -- -- 43
2020-05-23 15:00:00 27.2 10 Sudeste 22 Sudeste -- -- -- 43
2020-05-23 14:00:00 26.9 9 Sudeste 20 Sudeste -- -- -- 46
2020-05-23 13:00:00 26.9 9 Este 23 Este -- -- -- 45
2020-05-23 12:00:00 26.8 8 Sudeste 22 Sudeste -- -- -- 44
2020-05-23 11:00:00 25.9 8 Este 15 Sudeste -- -- -- 47
2020-05-23 10:00:00 24.4 3 Este 10 Nordeste -- -- -- 50
2020-05-23 09:00:00 21.2 2 Norte 4 Norte -- -- -- 63
2020-05-23 08:00:00 16.3 0 Calma 13 Sudoeste -- -- -- 79
2020-05-23 07:00:00 12.8 4 Oeste 12 Sudoeste -- -- -- 84
2020-05-23 06:00:00 13.2 2 Oeste 12 Sudoeste -- -- -- 85
2020-05-23 05:00:00 13.9 5 Sudoeste 12 Sudoeste -- -- -- 86
2020-05-23 04:00:00 14.2 6 Sudoeste 13 Sudoeste -- -- -- 88
2020-05-23 03:00:00 14 4 Oeste 12 Sudoeste -- -- -- 87
2020-05-23 02:00:00 14.4 9 Sudoeste 14 Sudoeste -- -- -- 83
2020-05-23 01:00:00 14.9 10 Sudoeste 15 Sudoeste -- -- -- 79
2020-05-23 00:00:00 15.6 10 Sudoeste 13 Sudoeste -- -- -- 82
2020-05-22 23:00:00 16 10 Sudoeste 13 Sudoeste -- -- -- 77
2020-05-22 22:00:00 17.2 8 Sudoeste 11 Sudoeste -- -- -- 72
2020-05-22 21:00:00 20.3 4 Sudoeste 9 Sudeste -- -- -- 65
2020-05-22 20:00:00 23.7 5 Sudoeste 19 Sudeste -- -- -- 47
2020-05-22 19:00:00 25.4 9 Sudeste 22 Sudeste -- -- -- 56
2020-05-22 18:00:00 27.2 11 Sudeste 21 Este -- -- -- 45
2020-05-22 17:00:00 27.7 13 Sudeste 23 Este -- -- -- 43
2020-05-22 16:00:00 28.9 13 Sudeste 26 Sudeste -- -- -- 41
2020-05-22 15:00:00 29.5 10 Este 22 Sudeste -- -- -- 39
2020-05-22 14:00:00 29.8 9 Este 20 Este -- -- -- 43
2020-05-22 13:00:00 29 10 Este 18 Nordeste -- -- -- 42
2020-05-22 12:00:00 28.7 8 Este 13 Este -- -- -- 38
2020-05-22 11:00:00 27.9 3 Este 9 Este -- -- -- 39
2020-05-22 10:00:00 25.9 3 Nordeste 5 Este -- -- -- 44
2020-05-22 09:00:00 22.2 0 Calma 3 Sur -- -- -- 62
2020-05-22 08:00:00 17.3 2 Sudoeste 10 Oeste -- -- -- 77
2020-05-22 07:00:00 14.2 5 Oeste 15 Sudoeste -- -- -- 81
2020-05-22 06:00:00 14.5 9 Sudoeste 14 Sudoeste -- -- -- 81
2020-05-22 05:00:00 14.6 9 Sudoeste 15 Sudoeste -- -- -- 79
2020-05-22 04:00:00 14.7 8 Sudoeste 14 Sudoeste -- -- -- 76
2020-05-22 03:00:00 15.1 9 Sudoeste 14 Sudoeste -- -- -- 70
2020-05-22 02:00:00 15 3 Oeste 10 Sudoeste -- -- -- 69
2020-05-22 01:00:00 15.5 6 Sudoeste 13 Sudoeste -- -- -- 65
2020-05-22 00:00:00 15.6 10 Sudoeste 14 Sudoeste -- -- -- 67
2020-05-21 23:00:00 16.3 9 Sudoeste 15 Sudoeste -- -- -- 64
2020-05-21 22:00:00 17.6 10 Sudoeste 14 Sudoeste -- -- -- 64
2020-05-21 21:00:00 20.7 4 Sudoeste 9 Sudeste -- -- -- 60
2020-05-21 20:00:00 24.4 6 Sudeste 17 Sudeste -- -- -- 40
2020-05-21 19:00:00 25.7 10 Sudeste 21 Sudeste -- -- -- 35
2020-05-21 18:00:00 26.8 10 Sudeste 23 Este -- -- -- 32
2020-05-21 17:00:00 27.7 11 Sudeste 25 Este -- -- -- 33
2020-05-21 16:00:00 28.8 11 Sudeste 28 Este -- -- -- 31
2020-05-21 15:00:00 29.7 7 Nordeste 19 Sudeste -- -- -- 33
2020-05-21 14:00:00 30.1 6 Sudoeste 16 Oeste -- -- -- 29
2020-05-21 13:00:00 28.5 12 Este 25 Este -- -- -- 33
2020-05-21 12:00:00 27.6 9 Este 17 Sudeste -- -- -- 39
2020-05-21 11:00:00 27 5 Este 10 Este -- -- -- 43
2020-05-21 10:00:00 25.1 2 Nordeste 5 Nordeste -- -- -- 48
2020-05-21 09:00:00 21.2 0 Calma 6 Sudoeste -- -- -- 70
2020-05-21 08:00:00 16.1 3 Sudoeste 10 Sudoeste -- -- -- 81
2020-05-21 07:00:00 12.3 5 Sudoeste 10 Sudoeste -- -- -- 88
2020-05-21 06:00:00 13.1 4 Sudoeste 12 Sudoeste -- -- -- 84
2020-05-21 05:00:00 13.6 9 Sudoeste 14 Sudoeste -- -- -- 81
2020-05-21 04:00:00 13.9 9 Sudoeste 14 Sudoeste -- -- -- 79
2020-05-21 03:00:00 14 8 Sudoeste 13 Sudoeste -- -- -- 77
2020-05-21 02:00:00 14.2 8 Sudoeste 12 Sudoeste -- -- -- 78
2020-05-21 01:00:00 14.3 6 Oeste 13 Sudoeste -- -- -- 78
2020-05-21 00:00:00 14.8 7 Sudoeste 14 Sudoeste -- -- -- 75
2020-05-20 23:00:00 15.4 9 Sudoeste 14 Sudoeste -- -- -- 74
2020-05-20 22:00:00 16.4 10 Sudoeste 13 Sudoeste -- -- -- 71
2020-05-20 21:00:00 18.7 5 Sudoeste 12 Sudoeste -- -- -- 67
2020-05-20 20:00:00 22.5 0 Calma 14 Sudeste -- -- -- 52
2020-05-20 19:00:00 24.5 6 Sudeste 15 Nordeste -- -- -- 43
2020-05-20 18:00:00 25.5 10 Sudeste 21 Sur -- -- -- 42
2020-05-20 17:00:00 25.6 10 Sudeste 28 Sudeste -- -- -- 42
2020-05-20 16:00:00 26.5 10 Sudeste 25 Sudeste -- -- -- 44
2020-05-20 15:00:00 26.6 11 Sudeste 26 Sudeste -- -- -- 44
2020-05-20 14:00:00 26.8 12 Sudeste 28 Este -- -- -- 47
2020-05-20 13:00:00 28.8 5 Noroeste 21 Norte -- -- -- 35
2020-05-20 12:00:00 27.2 8 Sudeste 19 Este -- -- -- 39
2020-05-20 11:00:00 26.6 5 Este 12 Nordeste -- -- -- 44
2020-05-20 10:00:00 24.8 2 Este 5 Este -- -- -- 50
2020-05-20 09:00:00 20.6 0 Calma 4 Sudeste -- -- -- 70
2020-05-20 08:00:00 15.7 0 Calma 8 Sudoeste -- -- -- 81
2020-05-20 07:00:00 12.8 4 Sudoeste 12 Sudoeste -- -- -- 86
2020-05-20 06:00:00 12.8 10 Sudoeste 14 Sudoeste -- -- -- 84
2020-05-20 05:00:00 12.8 5 Sudoeste 13 Sudoeste -- -- -- 85
2020-05-20 04:00:00 13.5 6 Sudoeste 14 Sudoeste -- -- -- 80
2020-05-20 03:00:00 13.7 9 Sudoeste 14 Sudoeste -- -- -- 81
2020-05-20 02:00:00 14 3 Oeste 13 Sudoeste -- -- -- 81
2020-05-20 01:00:00 14.1 8 Sudoeste 16 Sudoeste -- -- -- 78
2020-05-20 00:00:00 14.6 9 Sudoeste 13 Sudoeste -- -- -- 77
2020-05-19 23:00:00 16 7 Sudoeste 15 Sudoeste -- -- -- 70
2020-05-19 22:00:00 16.9 8 Sudoeste 14 Sudoeste -- -- -- 69
2020-05-19 21:00:00 19 10 Sudoeste 13 Sudoeste -- -- -- 67
2020-05-19 20:00:00 23.1 4 Sur 11 Sur -- -- -- 56
2020-05-19 19:00:00 25.4 5 Sudeste 16 Este -- -- -- 44
2020-05-19 18:00:00 25.6 8 Sudeste 21 Sudeste -- -- -- 44
2020-05-19 17:00:00 25.6 10 Sudeste 23 Sudeste -- -- -- 46
2020-05-19 16:00:00 25.7 14 Sudeste 23 Sudeste -- -- -- 46
2020-05-19 15:00:00 26.2 10 Sudeste 22 Sudeste -- -- -- 46
2020-05-19 14:00:00 27.2 10 Sudeste 21 Este -- -- -- 41
2020-05-19 13:00:00 27 6 Este 14 Este -- -- -- 37
2020-05-19 12:00:00 26.7 7 Sudoeste 14 Noroeste -- -- -- 40
2020-05-19 11:00:00 25 5 Sudeste 10 Sur -- -- -- 40
2020-05-19 10:00:00 22.7 3 Este 8 Norte -- -- -- 51
2020-05-19 09:00:00 19 2 Este 8 Sudoeste -- -- -- 69
2020-05-19 08:00:00 13.9 4 Sudoeste 11 Sudoeste -- -- -- 86
2020-05-19 07:00:00 10.2 6 Sudoeste 12 Sudoeste -- -- -- 94
2020-05-19 06:00:00 9.9 3 Sudoeste 10 Sudoeste -- -- -- 93
2020-05-19 05:00:00 10.7 3 Sudoeste 12 Sudoeste -- -- -- 92
2020-05-19 04:00:00 10.8 5 Oeste 13 Sudoeste -- -- -- 92
2020-05-19 03:00:00 11.3 7 Sudoeste 11 Sudoeste -- -- -- 90
2020-05-19 02:00:00 11.9 4 Oeste 13 Sudoeste -- -- -- 89
2020-05-19 01:00:00 12.6 6 Sudoeste 14 Sudoeste -- -- -- 87
2020-05-19 00:00:00 12.8 8 Sudoeste 14 Sudoeste -- -- -- 85
2020-05-18 23:00:00 13.2 8 Sudoeste 14 Sudoeste -- -- -- 83
2020-05-18 22:00:00 14.5 9 Sudoeste 13 Sudoeste -- -- -- 78
2020-05-18 21:00:00 17.5 6 Sudoeste 11 Sudoeste -- -- -- 74
2020-05-18 20:00:00 19.8 5 Sur 18 Sudeste -- -- -- 60
2020-05-18 19:00:00 20.9 8 Sudeste 22 Sudeste -- -- -- 60
2020-05-18 18:00:00 21.8 9 Sudeste 25 Sudeste -- -- -- 51
2020-05-18 17:00:00 22.6 11 Sudeste 26 Sudeste -- -- -- 52
2020-05-18 16:00:00 23.2 12 Sudeste 24 Sudeste -- -- -- 50
2020-05-18 15:00:00 23.6 9 Este 25 Este -- -- -- 52
2020-05-18 14:00:00 23.4 9 Sudeste 21 Sudeste -- -- -- 52
2020-05-18 13:00:00 23.2 9 Sudeste 22 Este -- -- -- 51
2020-05-18 12:00:00 23.5 7 Norte 13 Norte -- -- -- 44
2020-05-18 11:00:00 22.3 4 Nordeste 11 Nordeste -- -- -- 48
2020-05-18 10:00:00 20.8 6 Norte 10 Norte -- -- -- 54
2020-05-18 09:00:00 17.5 0 Calma 8 Sudoeste -- -- -- 76
2020-05-18 08:00:00 12.3 3 Sudoeste 12 Sudoeste -- -- -- 93
2020-05-18 07:00:00 9.5 8 Sudoeste 13 Sudoeste -- -- -- 95
2020-05-18 06:00:00 9.8 8 Sudoeste 15 Sudoeste -- -- -- 95
2020-05-18 05:00:00 10.3 9 Sudoeste 13 Sudoeste -- -- -- 95
2020-05-18 04:00:00 10.7 6 Sudoeste 15 Sudoeste -- -- -- 95
2020-05-18 03:00:00 10.7 8 Sudoeste 15 Sudoeste -- -- -- 95
2020-05-18 02:00:00 10.9 7 Sudoeste 12 Sudoeste -- -- -- 95
2020-05-18 01:00:00 11.4 4 Sudoeste 8 Sudoeste -- -- -- 93
2020-05-18 00:00:00 12.1 0 Calma 12 Sudoeste -- -- -- 93
2020-05-17 23:00:00 13 8 Sudoeste 12 Sudoeste -- -- -- 93
2020-05-17 22:00:00 13.4 9 Sudoeste 12 Sudoeste -- -- -- 92
2020-05-17 21:00:00 14.1 6 Sudoeste 13 Oeste -- -- -- 88
2020-05-17 20:00:00 15.3 6 Sudoeste 18 Sudoeste -- -- -- 82
2020-05-17 19:00:00 16.7 6 Sudoeste 20 Norte -- -- -- 80
2020-05-17 18:00:00 20.9 7 Este 18 Sudeste -- -- -- 50
2020-05-17 17:00:00 20.3 5 Sur 14 Sudeste -- -- -- 56
2020-05-17 16:00:00 21.2 9 Este 18 Sudeste -- -- -- 52
2020-05-17 15:00:00 21.9 5 Sur 22 Este -- -- -- 52
2020-05-17 14:00:00 21.4 9 Este 18 Este -- -- -- 48
2020-05-17 13:00:00 21.3 6 Este 12 Sudeste -- -- -- 48
2020-05-17 12:00:00 20.1 5 Este 12 Nordeste -- -- -- 49
2020-05-17 11:00:00 19.7 4 Sudeste 12 Este -- -- -- 51
2020-05-17 10:00:00 18.3 4 Nordeste 13 Noroeste -- -- -- 60
2020-05-17 09:00:00 15.7 5 Norte 13 Noroeste -- -- -- 69
2020-05-17 08:00:00 11.7 4 Noroeste 12 Norte -- -- -- 91
2020-05-17 07:00:00 9.2 3 Oeste 10 Oeste -- -- -- 94
2020-05-17 06:00:00 9.4 5 Oeste 11 Noroeste -- -- -- 93
2020-05-17 05:00:00 9.6 3 Oeste 9 Noroeste -- -- -- 93
2020-05-17 04:00:00 10.8 5 Oeste 15 Oeste -- -- -- 92
2020-05-17 03:00:00 11.7 3 Oeste 12 Sudoeste -- -- -- 93
2020-05-17 02:00:00 12.3 8 Sudoeste 11 Sudoeste -- -- -- 96
2020-05-17 01:00:00 11.9 5 Oeste 12 Sudoeste -- -- -- 96
2020-05-17 00:00:00 11.5 8 Sudoeste 13 Sudoeste -- -- -- 96
2020-05-16 23:00:00 12.3 4 Sudoeste 10 Sudoeste -- -- -- 94
2020-05-16 22:00:00 13.3 6 Sudoeste 12 Sudoeste -- -- -- 93
2020-05-16 21:00:00 13.8 6 Sudoeste 11 Sudoeste -- -- -- 92
2020-05-16 20:00:00 14.7 5 Sudoeste 10 Sudoeste -- -- -- 89
2020-05-16 19:00:00 14.6 4 Norte 8 Norte -- -- -- 91
2020-05-16 18:00:00 15 0 Calma 4 Oeste -- -- -- 91
2020-05-16 17:00:00 13.8 2 Este 13 Oeste -- -- -- 91
2020-05-16 16:00:00 13.7 6 Sudoeste 18 Sudoeste -- -- -- 87
2020-05-16 15:00:00 17.5 6 Noroeste 19 Oeste -- -- -- 66
2020-05-16 14:00:00 20.2 8 Sudeste 21 Sudeste -- -- -- 55
2020-05-16 13:00:00 19.3 6 Sur 20 Sudeste -- -- -- 60
2020-05-16 12:00:00 18.7 7 Nordeste 15 Norte -- -- -- 66
2020-05-16 11:00:00 16.7 5 Nordeste 13 Este -- -- -- 68
2020-05-16 10:00:00 15.5 5 Nordeste 13 Norte -- -- -- 74
2020-05-16 09:00:00 14.1 3 Norte 9 Noroeste -- -- -- 86
2020-05-16 08:00:00 12.4 2 Oeste 7 Noroeste -- -- -- 96
2020-05-16 07:00:00 11.9 2 Oeste 9 Noroeste -- -- -- 94
2020-05-16 06:00:00 12.3 2 Oeste 6 Norte -- -- -- 93
2020-05-16 05:00:00 12.7 3 Noroeste 12 Noroeste -- -- -- 92
2020-05-16 04:00:00 12.7 4 Noroeste 9 Sudoeste -- -- -- 96
2020-05-16 03:00:00 12.4 6 Sudoeste 9 Sudoeste -- -- -- 96
2020-05-16 02:00:00 12.4 6 Sudoeste 10 Sudoeste -- -- -- 96
2020-05-16 01:00:00 12.5 4 Sudoeste 9 Sudoeste -- -- -- 95
2020-05-16 00:00:00 12.5 7 Sudoeste 12 Sudoeste -- -- -- 94
2020-05-15 23:00:00 13.1 2 Oeste 6 Noroeste -- -- -- 91
2020-05-15 22:00:00 13.7 3 Oeste 6 Oeste -- -- -- 91
2020-05-15 21:00:00 14.7 0 Calma 8 Sur -- -- -- 90
2020-05-15 20:00:00 15.4 0 Calma 4 Sudeste -- -- -- 88
2020-05-15 19:00:00 16 0 Calma 9 Sudeste -- -- -- 83
2020-05-15 18:00:00 16.6 4 Sudeste 12 Este -- -- -- 71
2020-05-15 17:00:00 16.7 4 Sudeste 20 Este -- -- -- 72
2020-05-15 16:00:00 16.5 10 Sudeste 21 Sudeste -- -- -- 72
2020-05-15 15:00:00 17.3 7 Sudeste 14 Sudeste -- -- -- 67
2020-05-15 14:00:00 16.3 5 Sur 12 Este -- -- -- 72
2020-05-15 13:00:00 17.2 6 Sudeste 18 Este -- -- -- 63
2020-05-15 12:00:00 19 7 Sudeste 21 Este -- -- -- 53
2020-05-15 11:00:00 19 6 Sudeste 18 Sudeste -- -- -- 51
2020-05-15 10:00:00 18.2 3 Nordeste 9 Nordeste -- -- -- 52
2020-05-15 09:00:00 15.6 3 Este 6 Sudoeste -- -- -- 69
2020-05-15 08:00:00 10.9 0 Calma 12 Sudoeste -- -- -- 90
2020-05-15 07:00:00 7.6 5 Sudoeste 13 Sudoeste -- -- -- 95
2020-05-15 06:00:00 8 6 Sudoeste 12 Sudoeste -- -- -- 95
2020-05-15 05:00:00 8.9 3 Sudoeste 14 Sudoeste -- -- -- 92
2020-05-15 04:00:00 9.2 3 Oeste 9 Oeste -- -- -- 91
2020-05-15 03:00:00 9.4 2 Sudoeste 8 Sudoeste -- -- -- 91
2020-05-15 02:00:00 10.7 3 Sudoeste 8 Oeste -- -- -- 86
2020-05-15 01:00:00 10.4 3 Oeste 8 Sudoeste -- -- -- 87
2020-05-15 00:00:00 11.6 4 Sudoeste 9 Noroeste -- -- -- 85
2020-05-14 23:00:00 12.3 3 Noroeste 11 Oeste -- -- -- 77
2020-05-14 22:00:00 12.9 5 Oeste 11 Oeste -- -- -- 80
2020-05-14 21:00:00 14.2 6 Oeste 16 Noroeste -- -- -- 70
2020-05-14 20:00:00 15.3 6 Oeste 20 Noroeste -- -- -- 63
2020-05-14 19:00:00 16.2 3 Oeste 18 Oeste -- -- -- 68
2020-05-14 18:00:00 16 8 Noroeste 20 Oeste -- -- -- 65
2020-05-14 17:00:00 16.3 6 Noroeste 18 Oeste -- -- -- 72
2020-05-14 16:00:00 16.4 6 Noroeste 24 Noroeste -- -- -- 67
2020-05-14 15:00:00 16.4 9 Noroeste 18 Noroeste -- -- -- 71
2020-05-14 14:00:00 15.2 7 Noroeste 14 Noroeste -- -- -- 77
2020-05-14 13:00:00 14 5 Noroeste 15 Noroeste -- -- -- 83
2020-05-14 12:00:00 13.1 4 Norte 7 Norte -- -- -- 91
2020-05-14 11:00:00 12.2 2 Sur 17 Sudoeste 0 -- -- 91
2020-05-14 10:00:00 13.5 3 Sur 9 Sudoeste -- -- -- 92
2020-05-14 09:00:00 13 3 Sudoeste 6 Sudoeste -- -- -- 92
2020-05-14 08:00:00 12.1 0 Calma 6 Sudoeste -- -- -- 90
2020-05-14 07:00:00 11.9 3 Sudoeste 12 Sudoeste -- -- -- 87
2020-05-14 06:00:00 11.6 7 Sudoeste 12 Sudoeste -- -- -- 89
2020-05-14 05:00:00 10.8 7 Sudoeste 13 Sudoeste -- -- -- 91
2020-05-14 04:00:00 10.5 9 Sudoeste 14 Sudoeste -- -- -- 90
2020-05-14 03:00:00 11.4 8 Sudoeste 13 Sudoeste -- -- -- 88
2020-05-14 02:00:00 11.8 6 Oeste 13 Sudoeste -- -- -- 87
2020-05-14 01:00:00 11.7 6 Sudoeste 12 Sudoeste -- -- -- 84
2020-05-14 00:00:00 12.3 8 Sudoeste 14 Sudoeste -- -- -- 80
2020-05-13 23:00:00 13.5 8 Sudoeste 12 Sur -- -- -- 72
2020-05-13 22:00:00 16.9 3 Sudoeste 9 Sudoeste -- -- -- 58
2020-05-13 21:00:00 18.6 4 Noroeste 15 Sudoeste -- -- -- 51
2020-05-13 20:00:00 20.4 5 Oeste 21 Sudoeste -- -- -- 43
2020-05-13 19:00:00 22.3 7 Oeste 24 Sudoeste -- -- -- 40
2020-05-13 18:00:00 23.4 8 Oeste 21 Sudoeste -- -- -- 40
2020-05-13 17:00:00 23.7 5 Oeste 29 Noroeste -- -- -- 39
2020-05-13 16:00:00 23.9 9 Noroeste 29 Noroeste -- -- -- 37
2020-05-13 15:00:00 23.5 13 Noroeste 30 Noroeste -- -- -- 40
2020-05-13 14:00:00 23 7 Oeste 24 Noroeste -- -- -- 41
2020-05-13 13:00:00 21.6 7 Noroeste 19 Noroeste -- -- -- 48
2020-05-13 12:00:00 21.6 10 Noroeste 33 Norte -- -- -- 47
2020-05-13 11:00:00 19.8 12 Norte 27 Norte -- -- -- 47
2020-05-13 10:00:00 17.8 4 Sudoeste 19 Sudoeste -- -- -- 60
2020-05-13 09:00:00 16.6 4 Oeste 8 Oeste -- -- -- 61
2020-05-13 08:00:00 12.6 0 Calma 18 Oeste -- -- -- 78
2020-05-13 07:00:00 10.2 6 Oeste 17 Noroeste -- -- -- 82
2020-05-13 06:00:00 9.2 6 Oeste 13 Sudoeste -- -- -- 89
2020-05-13 05:00:00 10.5 8 Oeste 19 Oeste -- -- -- 83
2020-05-13 04:00:00 9.4 9 Sudoeste 15 Oeste -- -- -- 90
2020-05-13 03:00:00 10.5 10 Sudoeste 15 Oeste -- -- -- 89
2020-05-13 02:00:00 11.9 0 Calma 8 Sudoeste -- -- -- 91
2020-05-13 01:00:00 12.7 5 Sudoeste 11 Sudoeste -- -- -- 93
2020-05-13 00:00:00 13.5 4 Sudoeste 10 Sudoeste -- -- -- 92
2020-05-12 23:00:00 13.8 4 Sudoeste 6 Sudoeste -- -- -- 92
2020-05-12 22:00:00 14.2 3 Sudoeste 12 Sudoeste -- -- -- 91
2020-05-12 21:00:00 14.7 3 Sur 12 Sur -- -- -- 89
2020-05-12 20:00:00 15.3 4 Sur 13 Sudoeste -- -- -- 90
2020-05-12 19:00:00 15.8 4 Sur 14 Sur -- -- -- 87
2020-05-12 18:00:00 17 4 Sur 17 Sudeste -- -- -- 69
2020-05-12 17:00:00 17.8 4 Sur 21 Sudeste -- -- -- 66
2020-05-12 16:00:00 18.7 10 Sudeste 27 Sudeste -- -- -- 61
2020-05-12 15:00:00 20.8 9 Este 26 Sudeste -- -- -- 52
2020-05-12 14:00:00 19.8 9 Este 21 Este -- -- -- 58
2020-05-12 13:00:00 19 8 Sudeste 20 Este -- -- -- 57
2020-05-12 12:00:00 18.5 6 Sudeste 13 Este -- -- -- 58
2020-05-12 11:00:00 17.3 2 Este 6 Noroeste -- -- -- 60
2020-05-12 10:00:00 14.2 4 Oeste 10 Sudoeste -- -- -- 86
2020-05-12 09:00:00 13.6 7 Sudoeste 10 Sudoeste -- -- -- 80
2020-05-12 08:00:00 12.7 5 Sudoeste 11 Sudoeste -- -- -- 80
2020-05-12 07:00:00 12.3 8 Sudoeste 12 Sudoeste -- -- -- 77
2020-05-12 06:00:00 12.4 8 Sudoeste 10 Sudoeste -- -- -- 78
2020-05-12 05:00:00 14.5 2 Sur 15 Oeste -- -- -- 68
2020-05-12 04:00:00 15.4 8 Sudoeste 17 Sudoeste -- -- -- 63
2020-05-12 03:00:00 14.2 4 Noroeste 13 Oeste -- -- -- 68
2020-05-12 02:00:00 14.1 2 Noroeste 11 Sudoeste -- -- -- 70
2020-05-12 01:00:00 14.7 6 Oeste 14 Sudoeste -- -- -- 66
2020-05-12 00:00:00 16.4 9 Sudoeste 17 Noroeste -- -- -- 59
2020-05-11 23:00:00 17.8 9 Noroeste 30 Noroeste -- -- -- 53
2020-05-11 22:00:00 17.6 9 Oeste 22 Sudoeste -- -- -- 56
2020-05-11 21:00:00 18.6 5 Oeste 19 Noroeste -- -- -- 55
2020-05-11 20:00:00 20.5 5 Noroeste 28 Noroeste -- -- -- 46
2020-05-11 19:00:00 22.1 14 Noroeste 37 Noroeste -- -- -- 40
2020-05-11 18:00:00 22.2 10 Noroeste 31 Noroeste -- -- -- 42
2020-05-11 17:00:00 23.1 9 Noroeste 24 Noroeste -- -- -- 39
2020-05-11 16:00:00 23.2 15 Noroeste 36 Noroeste -- -- -- 38
2020-05-11 15:00:00 24.3 19 Noroeste 39 Noroeste -- -- -- 34
2020-05-11 14:00:00 24 17 Noroeste 33 Oeste -- -- -- 37
2020-05-11 13:00:00 23.2 12 Noroeste 31 Noroeste -- -- -- 41
2020-05-11 12:00:00 20.7 14 Noroeste 35 Norte -- -- -- 43
2020-05-11 11:00:00 21.7 15 Noroeste 46 Noroeste -- -- -- 41
2020-05-11 10:00:00 20.8 10 Noroeste 33 Oeste -- -- -- 47
2020-05-11 09:00:00 19 6 Noroeste 27 Oeste -- -- -- 52
2020-05-11 08:00:00 15.6 5 Noroeste 17 Noroeste -- -- -- 62
2020-05-11 07:00:00 14 7 Noroeste 23 Oeste -- -- -- 64
2020-05-11 06:00:00 13.5 6 Oeste 24 Sudoeste -- -- -- 65
2020-05-11 05:00:00 13.4 8 Noroeste 23 Sudoeste -- -- -- 64
2020-05-11 04:00:00 13.6 8 Noroeste 21 Sudoeste -- -- -- 62
2020-05-11 03:00:00 14.7 9 Oeste 32 Noroeste -- -- -- 57
2020-05-11 02:00:00 15.3 12 Noroeste 32 Noroeste -- -- -- 54
2020-05-11 01:00:00 16.2 17 Noroeste 36 Noroeste -- -- -- 50
2020-05-11 00:00:00 16.3 15 Noroeste 37 Noroeste -- -- -- 51
2020-05-10 23:00:00 16.1 13 Noroeste 31 Noroeste -- -- -- 55
2020-05-10 22:00:00 16 8 Noroeste 24 Noroeste -- -- -- 53
2020-05-10 21:00:00 17.3 9 Noroeste 26 Noroeste -- -- -- 49
2020-05-10 20:00:00 18.9 9 Oeste 28 Oeste -- -- -- 44
2020-05-10 19:00:00 21.6 9 Noroeste 28 Oeste -- -- -- 40
2020-05-10 18:00:00 23.2 12 Noroeste 36 Noroeste -- -- -- 32
2020-05-10 17:00:00 23.4 15 Noroeste 37 Norte -- -- -- 30
2020-05-10 16:00:00 23.2 10 Noroeste 46 Noroeste -- -- -- 34
2020-05-10 15:00:00 22.2 18 Noroeste 51 Noroeste -- -- -- 35
2020-05-10 14:00:00 20.1 15 Noroeste 43 Noroeste -- -- -- 45
2020-05-10 13:00:00 20.7 15 Noroeste 36 Noroeste -- -- -- 49
2020-05-10 12:00:00 19.6 12 Noroeste 27 Noroeste -- -- -- 53
2020-05-10 11:00:00 16.9 8 Noroeste 26 Oeste -- -- -- 70
2020-05-10 10:00:00 16.8 7 Noroeste 23 Oeste -- -- -- 69
2020-05-10 09:00:00 14.8 5 Noroeste 14 Oeste -- -- -- 91
2020-05-10 08:00:00 14.1 0 Calma 8 Sudoeste -- -- -- 97
2020-05-10 07:00:00 13.3 4 Sudoeste 10 Sudoeste -- -- -- 97
2020-05-10 06:00:00 12.6 5 Sudoeste 10 Sudoeste -- -- -- 96
2020-05-10 05:00:00 13.1 4 Sudoeste 8 Sudoeste -- -- -- 93
2020-05-10 04:00:00 14.5 0 Calma 7 Sudoeste -- -- -- 92
2020-05-10 03:00:00 14.7 4 Sudoeste 8 Sudoeste -- -- -- 94
2020-05-10 02:00:00 14.5 3 Sudoeste 9 Sudoeste -- -- -- 93
2020-05-10 01:00:00 14.5 2 Sudoeste 8 Sudoeste -- -- -- 93
2020-05-10 00:00:00 14.6 3 Oeste 12 Oeste -- -- -- 90
2020-05-09 23:00:00 15.1 5 Sudoeste 9 Sudoeste -- -- -- 90
2020-05-09 22:00:00 15.7 3 Sudoeste 8 Sur -- -- -- 90
2020-05-09 21:00:00 16.4 2 Sur 12 Sudoeste -- -- -- 82
2020-05-09 20:00:00 16.7 4 Sur 12 Sudeste -- -- -- 82
2020-05-09 19:00:00 17.3 5 Sudeste 13 Sur -- -- -- 80
2020-05-09 18:00:00 18.9 6 Sudeste 18 Sudeste -- -- -- 76
2020-05-09 17:00:00 20.8 8 Sudeste 17 Sudeste -- -- -- 69
2020-05-09 16:00:00 21.2 7 Sudeste 19 Este -- -- -- 68
2020-05-09 15:00:00 20.8 8 Sudeste 18 Sudeste -- -- -- 67
2020-05-09 14:00:00 19.6 8 Sudeste 17 Sur -- -- -- 74
2020-05-09 13:00:00 19.2 8 Sudeste 19 Este -- -- -- 76
2020-05-09 12:00:00 19.6 8 Sudeste 20 Este -- -- -- 73
2020-05-09 11:00:00 19.6 7 Este 16 Sudeste -- -- -- 72
2020-05-09 10:00:00 17.9 6 Este 15 Sudeste -- -- -- 77
2020-05-09 09:00:00 16.8 4 Este 10 Este -- -- -- 82
2020-05-09 08:00:00 13.1 5 Sudoeste 10 Sudoeste -- -- -- 96
2020-05-09 07:00:00 11.6 6 Sudoeste 10 Sudoeste -- -- -- 95
2020-05-09 06:00:00 12.1 4 Oeste 7 Sudoeste -- -- -- 94
2020-05-09 05:00:00 12.8 2 Oeste 5 Sudoeste -- -- -- 94
2020-05-09 04:00:00 12.8 4 Sudoeste 12 Sudoeste -- -- -- 96
2020-05-09 03:00:00 12.3 6 Sudoeste 8 Sudoeste -- -- -- 95
2020-05-09 02:00:00 11.9 6 Sudoeste 8 Sudoeste -- -- -- 94
2020-05-09 01:00:00 12.1 8 Sudoeste 12 Sudoeste -- -- -- 94
2020-05-09 00:00:00 12.7 0 Calma 12 Sudoeste -- -- -- 91
2020-05-08 23:00:00 12.9 9 Sudoeste 13 Sudoeste -- -- -- 88
2020-05-08 22:00:00 14.2 8 Sudoeste 12 Sudoeste -- -- -- 84
2020-05-08 21:00:00 16.6 5 Sudoeste 9 Sudoeste -- -- -- 80
2020-05-08 20:00:00 18.8 2 Sur 15 Sudeste -- -- -- 70
2020-05-08 19:00:00 19.8 8 Sudeste 19 Sudeste -- -- -- 69
2020-05-08 18:00:00 21 7 Sudeste 18 Sudeste -- -- -- 65
2020-05-08 17:00:00 20.8 8 Sudeste 23 Este 0 -- -- 63
2020-05-08 16:00:00 20.7 5 Sudeste 27 Este 0 -- -- 70
2020-05-08 15:00:00 19.8 7 Sudeste 21 Sudeste 0 -- -- 75
2020-05-08 14:00:00 21.8 7 Noroeste 18 Sur 0 -- -- 60
2020-05-08 13:00:00 22.3 6 Sudeste 15 Este 0 -- -- 59
2020-05-08 12:00:00 21.1 6 Este 17 Sudeste 0 -- -- 58
2020-05-08 11:00:00 19.8 5 Este 16 Nordeste 0 -- -- 59
2020-05-08 10:00:00 18.7 4 Nordeste 14 Norte 0 -- -- 66
2020-05-08 09:00:00 16.9 6 Noroeste 13 Norte 0 -- -- 73
2020-05-08 08:00:00 13 2 Sur 8 Norte 0 -- -- 93
2020-05-08 07:00:00 11.1 3 Sudoeste 9 Sudoeste 0 -- -- 93
2020-05-08 06:00:00 12.1 2 Sudoeste 15 Sudoeste 0 -- -- 91
2020-05-08 05:00:00 11.3 5 Sur 12 Sudoeste 0 -- -- 89
2020-05-08 04:00:00 11.6 7 Sudoeste 14 Sudoeste 0 -- -- 84
2020-05-08 03:00:00 12.5 6 Sudoeste 14 Sudoeste 0 -- -- 81
2020-05-08 02:00:00 12.7 3 Oeste 12 Sudoeste 0 -- -- 83
2020-05-08 01:00:00 12.6 5 Sudoeste 13 Sudoeste 0 -- -- 82
2020-05-08 00:00:00 13.1 8 Sudoeste 14 Sudoeste 0 -- -- 75
2020-05-07 23:00:00 13.9 5 Sudoeste 13 Sudoeste 0 -- -- 74
2020-05-07 22:00:00 15.8 4 Sudoeste 12 Sudoeste 0 -- -- 68
2020-05-07 21:00:00 18.1 3 Sudoeste 15 Oeste 0 -- -- 61
2020-05-07 20:00:00 19.6 5 Sur 15 Sudoeste 0 -- -- 71
2020-05-07 19:00:00 21.4 7 Sudeste 15 Este 0 -- -- 60
2020-05-07 18:00:00 22.5 5 Sudeste 16 Sudeste 0 -- -- 48
2020-05-07 17:00:00 23.3 6 Sudeste 15 Sudeste 0 -- -- 45
2020-05-07 16:00:00 22.6 8 Sudeste 20 Sudeste 0 -- -- 43
2020-05-07 15:00:00 23.2 9 Sudeste 22 Sudeste 0 -- -- 44
2020-05-07 14:00:00 23.7 10 Este 22 Este 0 -- -- 40
2020-05-07 13:00:00 23.9 8 Este 20 Este 0 -- -- 41
2020-05-07 12:00:00 23.1 4 Este 11 Norte 0 -- -- 40
2020-05-07 11:00:00 22.3 4 Este 10 Sudeste 0 -- -- 54
2020-05-07 10:00:00 21.6 4 Nordeste 7 Nordeste 0 -- -- 58
2020-05-07 09:00:00 17.9 0 Calma 4 Este 0 -- -- 75
2020-05-07 08:00:00 14.1 3 Sudoeste 14 Sudoeste 0 -- -- 85
2020-05-07 07:00:00 12.2 10 Sudoeste 14 Sudoeste 0 -- -- 88
2020-05-07 06:00:00 12.4 7 Sudoeste 12 Sudoeste 0 -- -- 88
2020-05-07 05:00:00 12 7 Sudoeste 12 Sudoeste 0 -- -- 90
2020-05-07 04:00:00 12.1 4 Sudoeste 12 Sudoeste 0 -- -- 89
2020-05-07 03:00:00 12.7 8 Sudoeste 12 Sudoeste 0 -- -- 89
2020-05-07 02:00:00 12.7 8 Sudoeste 11 Sudoeste 0 -- -- 91
2020-05-07 01:00:00 13.2 5 Oeste 12 Sudoeste 0 -- -- 90
2020-05-07 00:00:00 14.1 6 Sudoeste 11 Sudoeste 0 -- -- 86
2020-05-06 23:00:00 14.8 10 Sudoeste 12 Sudoeste 0 -- -- 82
2020-05-06 22:00:00 16.5 8 Sudoeste 12 Sudoeste 0 -- -- 78
2020-05-06 21:00:00 19.2 4 Sudoeste 9 Sur 0 -- -- 71
2020-05-06 20:00:00 21.8 5 Sur 12 Sudeste 0 -- -- 60
2020-05-06 19:00:00 22.7 8 Sudeste 16 Sudeste 0 -- -- 55
2020-05-06 18:00:00 23.1 6 Sudeste 21 Sudoeste 0 -- -- 58
2020-05-06 17:00:00 23.2 10 Sudeste 23 Sudeste 0 -- -- 60
2020-05-06 16:00:00 23.5 10 Sudeste 28 Este 0 -- -- 55
2020-05-06 15:00:00 24.8 12 Sudeste 26 Este 0 -- -- 50
2020-05-06 14:00:00 25.5 12 Sudeste 25 Este 0 -- -- 50
2020-05-06 13:00:00 26.2 10 Este 21 Este 0 -- -- 46
2020-05-06 12:00:00 26.4 5 Este 13 Sudeste 0 -- -- 45
2020-05-06 11:00:00 25.3 5 Este 8 Sudeste 0 -- -- 40
2020-05-06 10:00:00 22.9 3 Nordeste 5 Este 0 -- -- 58
2020-05-06 09:00:00 19.3 2 Sur 6 Sudoeste 0 -- -- 71
2020-05-06 08:00:00 14.1 4 Sudoeste 8 Sudoeste 0 -- -- 88
2020-05-06 07:00:00 12.6 2 Sudoeste 13 Sudoeste 0 -- -- 89
2020-05-06 06:00:00 13.1 5 Sudoeste 13 Sudoeste 0 -- -- 89
2020-05-06 05:00:00 12.4 7 Sudoeste 14 Sudoeste 0 -- -- 91
2020-05-06 04:00:00 12.8 5 Sudoeste 11 Sudoeste 0 -- -- 86
2020-05-06 03:00:00 13.2 8 Sudoeste 13 Sudoeste 0 -- -- 84
2020-05-06 02:00:00 13.6 6 Sudoeste 13 Sudoeste 0 -- -- 83
2020-05-06 01:00:00 13.7 6 Sudoeste 10 Sudoeste 0 -- -- 82
2020-05-06 00:00:00 14.3 9 Sudoeste 12 Sudoeste 0 -- -- 81
2020-05-05 23:00:00 15.2 4 Sudoeste 12 Sudoeste 0 -- -- 77
2020-05-05 22:00:00 16.6 4 Oeste 13 Oeste 0 -- -- 74
2020-05-05 21:00:00 19.3 4 Sudoeste 10 Sudoeste 0 -- -- 71
2020-05-05 20:00:00 22.9 4 Sur 13 Sur 0 -- -- 58
2020-05-05 19:00:00 23.6 3 Sudeste 12 Sudoeste 0 -- -- 56
2020-05-05 18:00:00 24.2 4 Sudoeste 15 Sudoeste 0 -- -- 59
2020-05-05 17:00:00 24.9 5 Sur 21 Sudeste 0 -- -- 58
2020-05-05 16:00:00 24.7 10 Sudeste 20 Sudeste 0 -- -- 55
2020-05-05 15:00:00 25.6 10 Sudeste 23 Sudeste 0 -- -- 59
2020-05-05 14:00:00 26.5 11 Sudeste 23 Sudeste 0 -- -- 58
2020-05-05 13:00:00 26.2 8 Este 16 Este 0 -- -- 52
2020-05-05 12:00:00 25.9 6 Este 12 Este 0 -- -- 49
2020-05-05 11:00:00 24.1 4 Este 9 Este 0 -- -- 57
2020-05-05 10:00:00 23.5 4 Sudeste 7 Sudeste 0 -- -- 59
2020-05-05 09:00:00 19.1 2 Sudoeste 6 Sudoeste 0 -- -- 77
2020-05-05 08:00:00 13.3 3 Sudoeste 10 Sudoeste 0 -- -- 93
2020-05-05 07:00:00 12.6 4 Sudoeste 9 Sudoeste 0 -- -- 92
2020-05-05 06:00:00 13.1 3 Sudoeste 15 Sudoeste 0 -- -- 88
2020-05-05 05:00:00 13 8 Sudoeste 14 Sudoeste 0 -- -- 88
2020-05-05 04:00:00 13.4 9 Sudoeste 14 Sudoeste 0 -- -- 87
2020-05-05 03:00:00 14.1 4 Sudoeste 13 Sudoeste 0 -- -- 87
2020-05-05 02:00:00 14.2 8 Sudoeste 13 Sudoeste 0 -- -- 90
2020-05-05 01:00:00 14 3 Oeste 11 Sudoeste 0 -- -- 87
2020-05-05 00:00:00 14.3 8 Sudoeste 14 Sudoeste 0 -- -- 82
2020-05-04 23:00:00 15.4 6 Sudoeste 13 Sudoeste 0 -- -- 79
2020-05-04 22:00:00 17.6 7 Sudoeste 12 Sudoeste 0 -- -- 74
2020-05-04 21:00:00 20.1 0 Calma 13 Sur 0 -- -- 74
2020-05-04 20:00:00 23.1 6 Sudeste 12 Sudeste 0 -- -- 63
2020-05-04 19:00:00 24.1 5 Sudeste 17 Sudeste 0 -- -- 60
2020-05-04 18:00:00 24.5 9 Sudeste 22 Este 0 -- -- 56
2020-05-04 17:00:00 25.4 10 Sudeste 26 Este 0 -- -- 54
2020-05-04 16:00:00 26 8 Este 20 Este 0 -- -- 52
2020-05-04 15:00:00 25.8 9 Sudeste 18 Este 0 -- -- 56
2020-05-04 14:00:00 25.6 7 Sudeste 19 Nordeste 0 -- -- 58
2020-05-04 13:00:00 24.3 7 Este 20 Sudeste 0 -- -- 59
2020-05-04 12:00:00 23.5 8 Este 14 Este 0 -- -- 57
2020-05-04 11:00:00 23.3 6 Este 12 Sudeste 0 -- -- 54
2020-05-04 10:00:00 21.6 5 Sudeste 8 Sudeste 0 -- -- 57
2020-05-04 09:00:00 18.1 0 Calma 5 Sudoeste 0 -- -- 72
2020-05-04 08:00:00 12.7 0 Calma 12 Sudoeste 0 -- -- 89
2020-05-04 07:00:00 10.9 5 Sudoeste 14 Sudoeste 0 -- -- 91
2020-05-04 06:00:00 10.5 4 Sudoeste 10 Sudoeste 0 -- -- 92
2020-05-04 05:00:00 11 3 Oeste 11 Sudoeste 0 -- -- 90
2020-05-04 04:00:00 11.3 3 Sudoeste 9 Sudoeste 0 -- -- 88
2020-05-04 03:00:00 12.4 3 Oeste 14 Sudoeste 0 -- -- 83
2020-05-04 02:00:00 13 7 Sudoeste 13 Sudoeste 0 -- -- 82
2020-05-04 01:00:00 13.3 7 Sudoeste 13 Sudoeste 0 -- -- 80
2020-05-04 00:00:00 13.9 10 Sudoeste 14 Sudoeste 0 -- -- 78
2020-05-03 23:00:00 14.6 10 Sudoeste 15 Sudoeste 0 -- -- 77
2020-05-03 22:00:00 15.6 12 Sudoeste 15 Sudoeste 0 -- -- 74
2020-05-03 21:00:00 18.3 6 Sudoeste 9 Sudeste 0 -- -- 70
2020-05-03 20:00:00 22 6 Sudeste 19 Sudeste 0 -- -- 49
2020-05-03 19:00:00 23.5 10 Sudeste 18 Sudeste 0 -- -- 46
2020-05-03 18:00:00 24.7 11 Sudeste 24 Sudeste 0 -- -- 46
2020-05-03 17:00:00 25.3 9 Este 26 Sudeste 0 -- -- 47
2020-05-03 16:00:00 25.4 12 Sudeste 26 Este 0 -- -- 46
2020-05-03 15:00:00 25.4 13 Sudeste 24 Este 0 -- -- 47
2020-05-03 14:00:00 25.9 12 Este 26 Este 0 -- -- 48
2020-05-03 13:00:00 25.9 10 Sudeste 21 Este 0 -- -- 45
2020-05-03 12:00:00 25.5 11 Sudeste 21 Este 0 -- -- 44
2020-05-03 11:00:00 25.2 7 Este 18 Este 0 -- -- 45
2020-05-03 10:00:00 23.9 3 Nordeste 5 Sudeste 0 -- -- 45
2020-05-03 09:00:00 18.8 0 Calma 8 Sudoeste 0 -- -- 67
2020-05-03 08:00:00 14.1 4 Sudoeste 13 Sudoeste 0 -- -- 80
2020-05-03 07:00:00 12.2 6 Sudoeste 13 Sudoeste 0 -- -- 79
2020-05-03 06:00:00 13.1 4 Sudoeste 15 Sudoeste 0 -- -- 77
2020-05-03 05:00:00 13.1 9 Sudoeste 15 Sudoeste 0 -- -- 75
2020-05-03 04:00:00 13.8 9 Sudoeste 14 Sudoeste 0 -- -- 73
2020-05-03 03:00:00 14.3 11 Sudoeste 15 Sudoeste 0 -- -- 71
2020-05-03 02:00:00 14.8 6 Sudoeste 16 Sudoeste 0 -- -- 66
2020-05-03 01:00:00 15.1 11 Sudoeste 16 Sudoeste 0 -- -- 67
2020-05-03 00:00:00 15.8 3 Oeste 14 Sudoeste 0 -- -- 71